Time;durP1;ratioP1;P1;durP2;ratioP2;P2;SDS_P1;SDS_P2;PMS_P1;PMS_P2;Temp;Humidity;BMP_temperature;BMP_pressure;BME280_temperature;BME280_humidity;BME280_pressure;Samples;Min_cycle;Max_cycle;Signal;HPM_P1;HPM_P2
2021/09/29 00:00:00;;;;;;;25.48;21.67;;;;;;;13.51;100.00;96021.38;1031191;28;20046;-66
2021/09/29 00:00:31;;;;;;;25.80;21.13;;;;;;;13.50;100.00;96016.41;1030655;28;20022;-63
2021/09/29 00:01:02;;;;;;;23.70;21.08;;;;;;;13.47;100.00;96023.00;1028899;28;20035;-66
2021/09/29 00:01:32;;;;;;;22.77;20.38;;;;;;;13.48;100.00;96023.78;1025073;28;20015;-63
2021/09/29 00:02:03;;;;;;;29.55;21.77;;;;;;;13.50;100.00;96019.03;1030756;28;20100;-66
2021/09/29 00:02:33;;;;;;;22.25;19.83;;;;;;;13.51;100.00;96017.97;1034634;28;20068;-66
2021/09/29 00:03:04;;;;;;;24.02;21.33;;;;;;;13.51;100.00;96017.97;1030221;28;20116;-66
2021/09/29 00:03:34;;;;;;;23.38;20.77;;;;;;;13.52;100.00;96020.34;1026578;28;20015;-66
2021/09/29 00:04:05;;;;;;;23.98;19.08;;;;;;;13.53;100.00;96021.91;1030569;28;20022;-66
2021/09/29 00:04:35;;;;;;;23.65;20.45;;;;;;;13.52;100.00;96019.56;1026418;28;20047;-65
2021/09/29 00:05:06;;;;;;;22.80;20.40;;;;;;;13.51;100.00;96024.03;1030547;28;20027;-65
2021/09/29 00:05:39;;;;;;;23.05;20.27;;;;;;;13.51;100.00;96028.50;1026320;28;20026;-66
2021/09/29 00:06:09;;;;;;;22.63;19.55;;;;;;;13.46;100.00;96015.38;1027825;28;20026;-66
2021/09/29 00:06:40;;;;;;;24.52;19.67;;;;;;;13.50;100.00;96027.72;1029900;28;20038;-66
2021/09/29 00:07:11;;;;;;;21.63;18.83;;;;;;;13.51;100.00;96023.22;1027195;28;20500;-66
2021/09/29 00:07:41;;;;;;;26.52;21.33;;;;;;;13.45;100.00;96014.59;1034361;28;20022;-63
2021/09/29 00:08:12;;;;;;;22.70;19.90;;;;;;;13.51;100.00;96020.59;1026358;28;20129;-66
2021/09/29 00:08:42;;;;;;;21.23;18.92;;;;;;;13.57;100.00;96022.16;1030748;28;20473;-66
2021/09/29 00:09:13;;;;;;;25.77;20.25;;;;;;;13.55;100.00;96016.38;1030712;28;20503;-66
2021/09/29 00:09:43;;;;;;;23.67;19.58;;;;;;;13.56;100.00;96024.00;1022372;28;20041;-66
2021/09/29 00:10:16;;;;;;;23.40;20.52;;;;;;;13.55;100.00;96022.44;1022594;29;20027;-65
2021/09/29 00:10:47;;;;;;;25.45;19.10;;;;;;;13.56;100.00;96025.84;1022635;29;20110;-66
2021/09/29 00:11:20;;;;;;;24.38;19.55;;;;;;;13.49;100.00;96012.97;1018650;28;20032;-63
2021/09/29 00:11:50;;;;;;;25.33;20.02;;;;;;;13.54;100.00;96022.69;1025981;28;20039;-66
2021/09/29 00:12:21;;;;;;;20.92;18.73;;;;;;;13.53;100.00;96021.13;1022963;28;20031;-63
2021/09/29 00:12:52;;;;;;;22.50;19.40;;;;;;;13.53;100.00;96018.50;1021194;28;20568;-66
2021/09/29 00:13:24;;;;;;;27.25;19.65;;;;;;;13.54;100.00;96017.41;1028218;28;20055;-66
2021/09/29 00:13:54;;;;;;;23.42;19.88;;;;;;;13.50;100.00;96005.84;1026694;28;20519;-66
2021/09/29 00:14:25;;;;;;;23.25;19.23;;;;;;;13.53;100.00;96015.84;1026795;28;20031;-65
2021/09/29 00:14:55;;;;;;;21.55;19.10;;;;;;;13.52;100.00;96020.34;1029561;28;20496;-65
2021/09/29 00:15:26;;;;;;;20.98;17.02;;;;;;;13.52;100.00;96014.28;1022586;29;20495;-67
2021/09/29 00:15:56;;;;;;;20.73;17.05;;;;;;;13.47;100.00;96009.81;1018474;28;20043;-66
2021/09/29 00:16:27;;;;;;;22.35;16.30;;;;;;;13.43;100.00;96006.16;1018469;29;20020;-66
2021/09/29 00:16:57;;;;;;;20.42;16.92;;;;;;;13.48;100.00;96015.88;1014631;29;20028;-66
2021/09/29 00:17:28;;;;;;;20.73;17.48;;;;;;;13.49;100.00;96012.19;1022572;28;20034;-66
2021/09/29 00:17:58;;;;;;;22.20;18.88;;;;;;;13.42;100.00;96005.38;1026766;28;20029;-65
2021/09/29 00:18:29;;;;;;;21.67;19.35;;;;;;;13.47;100.00;96009.81;1030494;28;20094;-66
2021/09/29 00:18:59;;;;;;;24.30;19.23;;;;;;;13.50;100.00;96011.13;1030237;28;20436;-65
2021/09/29 00:19:29;;;;;;;22.02;18.88;;;;;;;13.50;100.00;96016.41;1028376;28;20795;-66
2021/09/29 00:20:00;;;;;;;21.83;18.30;;;;;;;13.50;100.00;96005.84;1030424;28;20492;-66
2021/09/29 00:20:33;;;;;;;20.08;17.90;;;;;;;13.51;100.00;96015.31;1030973;28;20022;-66
2021/09/29 00:21:04;;;;;;;25.50;18.23;;;;;;;13.53;100.00;96013.22;1030408;28;20023;-66
2021/09/29 00:21:34;;;;;;;21.73;17.48;;;;;;;13.50;100.00;96008.50;1025585;28;20117;-65
2021/09/29 00:22:05;;;;;;;22.65;17.98;;;;;;;13.50;100.00;96011.13;1027080;28;20038;-66
2021/09/29 00:22:35;;;;;;;24.15;18.98;;;;;;;13.49;100.00;96004.28;1030452;28;20053;-66
2021/09/29 00:23:06;;;;;;;25.45;19.52;;;;;;;13.52;100.00;96009.00;1031775;28;20579;-66
2021/09/29 00:23:36;;;;;;;24.50;17.92;;;;;;;13.52;100.00;96014.28;1030496;28;20030;-65
2021/09/29 00:24:06;;;;;;;21.48;19.08;;;;;;;13.52;100.00;96009.00;1030275;28;20144;-66
2021/09/29 00:24:37;;;;;;;22.02;18.15;;;;;;;13.50;100.00;96011.91;1027657;28;20026;-66
2021/09/29 00:25:08;;;;;;;19.67;17.58;;;;;;;13.50;100.00;96003.22;1028458;28;20046;-66
2021/09/29 00:25:42;;;;;;;22.88;17.80;;;;;;;13.50;100.00;96006.63;1030023;28;20156;-66
2021/09/29 00:26:12;;;;;;;20.40;17.50;;;;;;;13.50;100.00;96008.50;1026062;28;20030;-66
2021/09/29 00:26:43;;;;;;;19.08;17.05;;;;;;;13.46;100.00;95994.28;1026576;28;20031;-66
2021/09/29 00:27:13;;;;;;;19.73;16.85;;;;;;;13.50;100.00;96000.56;1022794;28;20031;-65
2021/09/29 00:27:44;;;;;;;24.05;17.23;;;;;;;13.47;100.00;95990.59;1026981;28;20031;-66
2021/09/29 00:28:14;;;;;;;21.88;17.52;;;;;;;13.49;100.00;95999.78;1026231;28;20027;-65
2021/09/29 00:28:44;;;;;;;19.95;16.42;;;;;;;13.48;100.00;96000.88;1030613;28;20384;-64
2021/09/29 00:29:15;;;;;;;22.52;17.23;;;;;;;13.48;100.00;95998.22;1031801;28;20499;-65
2021/09/29 00:29:48;;;;;;;19.02;16.88;;;;;;;13.48;100.00;96000.06;1023602;28;20042;-65
2021/09/29 00:30:19;;;;;;;16.73;14.88;;;;;;;13.51;100.00;96007.41;1022139;29;20023;-66
2021/09/29 00:31:03;;;;;;;20.33;14.68;;;;;;;13.46;100.00;95999.56;1022093;29;20071;-66
2021/09/29 00:31:39;;;;;;;21.17;15.98;;;;;;;13.45;100.00;95996.13;1024232;28;20019;-65
2021/09/29 00:32:09;;;;;;;20.42;15.02;;;;;;;13.44;100.00;96002.44;1021986;29;20425;-66
2021/09/29 00:32:43;;;;;;;18.48;14.57;;;;;;;13.48;100.00;96007.97;1025480;28;20107;-65
2021/09/29 00:33:19;;;;;;;18.80;14.43;;;;;;;13.49;100.00;96004.28;1029462;28;20104;-66
2021/09/29 00:33:57;;;;;;;16.08;14.38;;;;;;;13.47;100.00;96006.41;1028462;28;20023;-65
2021/09/29 00:34:39;;;;;;;18.70;14.43;;;;;;;13.44;100.00;96005.88;1030544;28;20345;-66
2021/09/29 00:35:12;;;;;;;18.40;14.48;;;;;;;13.46;100.00;96007.47;1036043;28;20057;-65
2021/09/29 00:35:42;;;;;;;17.45;13.43;;;;;;;13.44;100.00;96003.22;1036802;28;20401;-66
2021/09/29 00:36:17;;;;;;;15.07;13.48;;;;;;;13.42;100.00;96010.66;1038373;28;20067;-63
2021/09/29 00:36:47;;;;;;;15.85;14.10;;;;;;;13.40;100.00;96009.34;1026332;28;20105;-65
2021/09/29 00:37:17;;;;;;;19.10;14.32;;;;;;;13.37;100.00;96002.75;1023102;28;20019;-65
2021/09/29 00:37:48;;;;;;;18.58;14.65;;;;;;;13.45;100.00;96004.03;1022178;29;20027;-66
2021/09/29 00:38:18;;;;;;;17.52;15.38;;;;;;;13.43;100.00;96001.66;1021659;28;20117;-65
2021/09/29 00:38:49;;;;;;;22.02;15.43;;;;;;;13.42;100.00;96010.66;1026380;28;20030;-65
2021/09/29 00:39:19;;;;;;;15.13;13.52;;;;;;;13.39;100.00;96002.50;1030365;28;20030;-65
2021/09/29 00:39:53;;;;;;;16.58;14.57;;;;;;;13.46;100.00;96010.09;1027675;28;20027;-65
2021/09/29 00:40:23;;;;;;;17.20;14.73;;;;;;;13.47;100.00;96017.72;1025197;28;20023;-65
2021/09/29 00:40:53;;;;;;;19.60;14.65;;;;;;;13.48;100.00;96013.22;1027584;28;20019;-66
2021/09/29 00:41:24;;;;;;;18.48;14.75;;;;;;;13.44;100.00;96002.44;1029207;28;20057;-65
2021/09/29 00:41:57;;;;;;;16.50;13.23;;;;;;;13.41;100.00;95998.53;1025076;28;20064;-66
2021/09/29 00:42:28;;;;;;;16.58;14.38;;;;;;;13.40;100.00;95996.16;1031561;28;20026;-66
2021/09/29 00:42:58;;;;;;;18.52;14.05;;;;;;;13.46;100.00;96000.34;1027275;28;20023;-66
2021/09/29 00:43:28;;;;;;;20.95;14.98;;;;;;;13.47;100.00;96003.75;1027552;28;20290;-65
2021/09/29 00:44:00;;;;;;;20.63;14.20;;;;;;;13.44;100.00;95995.31;1027249;28;20034;-66
2021/09/29 00:44:31;;;;;;;18.38;14.77;;;;;;;13.43;100.00;96001.66;1023177;29;20097;-66
2021/09/29 00:45:01;;;;;;;16.80;13.35;;;;;;;13.47;100.00;96001.13;1026575;28;20077;-66
2021/09/29 00:45:31;;;;;;;17.30;14.98;;;;;;;13.48;100.00;95997.41;1022681;29;20054;-65
2021/09/29 00:46:02;;;;;;;18.20;14.35;;;;;;;13.50;100.00;95995.31;1027280;28;20500;-66
2021/09/29 00:46:33;;;;;;;18.65;14.88;;;;;;;13.48;100.00;96005.31;1030949;28;20100;-66
2021/09/29 00:47:03;;;;;;;16.50;13.80;;;;;;;13.43;100.00;95999.03;1031485;28;20518;-66
2021/09/29 00:47:34;;;;;;;18.88;14.20;;;;;;;13.44;100.00;95991.91;1023558;29;20745;-65
2021/09/29 00:48:05;;;;;;;16.73;14.18;;;;;;;13.43;100.00;96001.66;1022846;29;20117;-65
2021/09/29 00:48:35;;;;;;;18.25;15.02;;;;;;;13.48;100.00;96003.50;1027342;28;20491;-65
2021/09/29 00:49:06;;;;;;;15.80;13.57;;;;;;;13.47;100.00;96004.53;1027416;28;20123;-66
2021/09/29 00:49:36;;;;;;;19.85;14.88;;;;;;;13.44;100.00;96002.44;1030135;28;20054;-66
2021/09/29 00:50:08;;;;;;;22.75;14.88;;;;;;;13.41;100.00;96003.81;1034306;28;20061;-66
2021/09/29 00:50:38;;;;;;;19.63;15.00;;;;;;;13.41;100.00;96009.09;1035393;28;20610;-65
2021/09/29 00:51:10;;;;;;;17.75;15.02;;;;;;;13.39;100.00;96005.91;1031031;28;20030;-65
2021/09/29 00:51:43;;;;;;;17.95;15.75;;;;;;;13.40;100.00;96010.13;1024836;28;20024;-66
2021/09/29 00:52:14;;;;;;;20.05;16.00;;;;;;;13.39;100.00;96008.56;1027395;28;20037;-66
2021/09/29 00:52:44;;;;;;;16.48;14.45;;;;;;;13.37;100.00;96001.97;1024925;28;20485;-66
2021/09/29 00:53:16;;;;;;;18.20;15.00;;;;;;;13.35;100.00;95998.84;1027499;28;20038;-65
2021/09/29 00:53:48;;;;;;;16.17;14.32;;;;;;;13.42;100.00;96008.00;1035399;28;20030;-66
2021/09/29 00:54:19;;;;;;;17.27;15.27;;;;;;;13.42;100.00;96008.00;1031297;28;20034;-65
2021/09/29 00:54:50;;;;;;;22.73;15.70;;;;;;;13.38;100.00;96004.34;1027202;28;20089;-66
2021/09/29 00:55:20;;;;;;;16.83;14.32;;;;;;;13.42;100.00;96008.00;1023765;28;20704;-66
2021/09/29 00:55:50;;;;;;;18.80;16.10;;;;;;;13.40;100.00;96014.59;1023387;28;20035;-66
2021/09/29 00:56:21;;;;;;;18.35;15.73;;;;;;;13.40;100.00;96012.75;1023125;28;20038;-66
2021/09/29 00:56:51;;;;;;;19.83;15.38;;;;;;;13.39;100.00;96011.19;1022053;28;20031;-66
2021/09/29 00:57:22;;;;;;;17.80;15.48;;;;;;;13.30;100.00;96001.50;1015234;29;20032;-65
2021/09/29 00:57:52;;;;;;;18.15;14.55;;;;;;;13.39;100.00;96011.19;1019357;29;20042;-66
2021/09/29 00:58:23;;;;;;;17.15;15.25;;;;;;;13.30;100.00;96004.91;1026249;28;20409;-66
2021/09/29 00:58:53;;;;;;;17.88;15.98;;;;;;;13.34;100.00;96005.94;1019633;28;20403;-66
2021/09/29 00:59:24;;;;;;;16.60;14.68;;;;;;;13.35;100.00;96015.44;1019439;29;20524;-66
2021/09/29 00:59:54;;;;;;;18.90;14.82;;;;;;;13.36;100.00;96008.31;1015025;29;20728;-63
2021/09/29 01:00:25;;;;;;;17.88;15.88;;;;;;;13.37;100.00;96010.66;1018895;29;20039;-66
2021/09/29 01:00:56;;;;;;;17.77;14.93;;;;;;;13.33;100.00;96007.00;1023430;28;20023;-65
2021/09/29 01:01:26;;;;;;;19.48;15.05;;;;;;;13.37;100.00;96013.31;1023174;28;20038;-65
2021/09/29 01:01:56;;;;;;;20.02;15.73;;;;;;;13.38;100.00;96014.91;1033558;28;20511;-66
2021/09/29 01:02:27;;;;;;;16.55;14.80;;;;;;;13.35;100.00;96007.53;1031179;28;20397;-66
2021/09/29 01:02:57;;;;;;;19.15;14.98;;;;;;;13.35;100.00;96010.16;1027510;28;20027;-66
2021/09/29 01:03:28;;;;;;;16.13;14.27;;;;;;;13.26;100.00;96001.25;1031207;28;20026;-65
2021/09/29 01:03:58;;;;;;;22.10;15.27;;;;;;;13.33;100.00;96011.50;1027183;28;20027;-65
2021/09/29 01:04:29;;;;;;;31.88;15.48;;;;;;;13.33;100.00;96009.63;1026933;28;20436;-66
2021/09/29 01:04:59;;;;;;;18.83;15.15;;;;;;;13.35;100.00;96014.66;1023448;29;20071;-67
2021/09/29 01:05:30;;;;;;;16.70;14.30;;;;;;;13.29;100.00;96005.97;1026250;28;20030;-65
2021/09/29 01:06:02;;;;;;;18.90;15.18;;;;;;;13.27;100.00;95997.53;1029589;28;20022;-66
2021/09/29 01:06:37;;;;;;;22.55;15.77;;;;;;;13.33;100.00;96012.28;1023298;29;20753;-66
2021/09/29 01:07:17;;;;;;;18.73;14.68;;;;;;;13.32;100.00;96015.97;1026152;28;20324;-65
2021/09/29 01:07:55;;;;;;;18.60;15.18;;;;;;;13.33;100.00;96012.28;1024970;28;20026;-66
2021/09/29 01:08:29;;;;;;;19.63;15.02;;;;;;;13.30;100.00;96006.75;1027012;28;20070;-65
2021/09/29 01:09:04;;;;;;;22.08;15.55;;;;;;;13.34;100.00;96011.22;1026924;28;20034;-66
2021/09/29 01:09:40;;;;;;;19.38;14.10;;;;;;;13.30;100.00;96004.91;1026888;28;20034;-65
2021/09/29 01:10:23;;;;;;;18.83;15.18;;;;;;;13.35;100.00;96012.81;1022694;28;20082;-65
2021/09/29 01:10:58;;;;;;;18.60;14.02;;;;;;;13.33;100.00;96012.28;1026189;28;20026;-66
2021/09/29 01:11:31;;;;;;;17.75;13.77;;;;;;;13.34;100.00;96013.84;1022406;29;20262;-65
2021/09/29 01:12:06;;;;;;;16.77;14.18;;;;;;;13.30;100.00;96012.03;1025764;28;20035;-66
2021/09/29 01:12:42;;;;;;;20.85;15.25;;;;;;;13.26;100.00;96001.25;1024655;28;20796;-63
2021/09/29 01:13:26;;;;;;;20.90;14.77;;;;;;;13.28;100.00;96014.97;1023056;29;20130;-65
2021/09/29 01:14:16;;;;;;;21.70;14.63;;;;;;;13.27;100.00;96013.34;1019241;29;20102;-66
2021/09/29 01:15:08;;;;;;;21.52;14.73;;;;;;;13.28;100.00;96014.97;1024431;28;20081;-66
2021/09/29 01:15:43;;;;;;;16.67;14.35;;;;;;;13.30;100.00;96019.94;1028482;28;20669;-66
2021/09/29 01:16:14;;;;;;;20.42;14.55;;;;;;;13.29;100.00;96019.16;1025453;28;20133;-66
2021/09/29 01:16:45;;;;;;;20.65;14.93;;;;;;;13.32;100.00;96015.19;1026836;28;20286;-65
2021/09/29 01:17:17;;;;;;;17.58;14.25;;;;;;;13.30;100.00;96006.75;1030336;28;20027;-65
2021/09/29 01:17:48;;;;;;;18.90;14.63;;;;;;;13.26;100.00;96016.28;1027871;28;20644;-65
2021/09/29 01:18:23;;;;;;;18.75;15.25;;;;;;;13.27;100.00;96016.00;1023300;29;20042;-66
2021/09/29 01:18:56;;;;;;;18.17;14.07;;;;;;;13.25;100.00;96010.22;1024017;28;20267;-66
2021/09/29 01:20:08;;;;;;;16.95;14.75;;;;;;;13.34;100.00;96013.06;1021814;28;20095;-66
2021/09/29 01:20:42;;;;;;;15.88;14.18;;;;;;;13.32;100.00;96023.88;1028769;28;20524;-66
2021/09/29 01:21:13;;;;;;;17.08;13.70;;;;;;;13.33;100.00;96020.19;1027246;28;20058;-65
2021/09/29 01:21:48;;;;;;;16.98;14.30;;;;;;;13.32;100.00;96023.88;1031310;28;20257;-65
2021/09/29 01:22:43;;;;;;;19.90;15.15;;;;;;;13.29;100.00;96027.06;1028415;28;20018;-66
2021/09/29 01:23:37;;;;;;;18.40;15.13;;;;;;;13.31;100.00;96030.22;1031031;28;20022;-65
2021/09/29 01:24:15;;;;;;;19.33;15.65;;;;;;;13.29;100.00;96027.06;1033831;28;20277;-67
2021/09/29 01:24:54;;;;;;;16.98;14.35;;;;;;;13.31;100.00;96030.22;1031320;28;20658;-66
2021/09/29 01:25:47;;;;;;;15.73;11.38;;;;;;;13.30;100.00;96027.84;1027774;28;20294;-66
2021/09/29 01:26:20;;;;;;;25.58;20.70;;;;;;;13.29;100.00;96026.28;1029470;28;20030;-65
2021/09/29 01:26:50;;;;;;;27.08;20.00;;;;;;;13.26;100.00;96018.91;1031229;28;20516;-66
2021/09/29 01:27:22;;;;;;;23.95;18.98;;;;;;;13.28;100.00;96030.78;1034582;28;20022;-65
2021/09/29 01:27:52;;;;;;;24.88;20.00;;;;;;;13.24;100.00;96028.91;1023099;29;20047;-66
2021/09/29 01:28:39;;;;;;;25.92;19.80;;;;;;;13.28;100.00;96030.78;1023382;29;20274;-66
2021/09/29 01:29:11;;;;;;;15.02;10.00;;;;;;;13.29;100.00;96032.34;1019196;29;20876;-65
2021/09/29 01:29:41;;;;;;;18.52;10.23;;;;;;;13.25;100.00;96025.25;1022274;29;20110;-65
2021/09/29 01:30:12;;;;;;;20.25;16.35;;;;;;;13.23;100.00;96022.06;1023145;29;20050;-66
2021/09/29 01:30:43;;;;;;;18.90;16.60;;;;;;;13.19;100.00;96027.88;1019324;29;20024;-66
2021/09/29 01:31:14;;;;;;;18.98;16.35;;;;;;;13.25;100.00;96031.31;1019982;28;20398;-65
2021/09/29 01:31:44;;;;;;;20.98;16.70;;;;;;;13.22;100.00;96029.19;1027185;28;20022;-66
2021/09/29 01:32:23;;;;;;;21.63;16.58;;;;;;;13.19;100.00;96027.88;1023152;29;20026;-66
2021/09/29 01:32:54;;;;;;;22.02;17.13;;;;;;;13.20;100.00;96029.44;1022433;28;20497;-65
2021/09/29 01:33:29;;;;;;;21.92;16.58;;;;;;;13.24;100.00;96029.72;1023059;28;20027;-66
2021/09/29 01:33:59;;;;;;;18.25;16.35;;;;;;;13.21;100.00;96028.41;1021113;29;20272;-65
2021/09/29 01:34:30;;;;;;;19.67;17.15;;;;;;;13.23;100.00;96032.59;1023833;28;20655;-65
2021/09/29 01:35:00;;;;;;;21.02;18.15;;;;;;;13.12;100.00;96016.84;1032354;28;20030;-66
2021/09/29 01:35:31;;;;;;;21.42;17.23;;;;;;;13.14;100.00;96019.97;1027100;28;20109;-66
2021/09/29 01:36:02;;;;;;;21.00;17.10;;;;;;;13.20;100.00;96029.44;1023264;28;20015;-66
2021/09/29 01:36:32;;;;;;;21.30;17.60;;;;;;;13.20;100.00;96031.28;1027123;28;20575;-65
2021/09/29 01:37:05;;;;;;;22.15;17.23;;;;;;;13.20;100.00;96034.72;1023263;28;20109;-66
2021/09/29 01:37:35;;;;;;;22.42;16.17;;;;;;;13.24;100.00;96034.97;1023824;28;20446;-67
2021/09/29 01:38:06;;;;;;;23.08;16.60;;;;;;;13.20;100.00;96033.94;1023285;29;20019;-64
2021/09/29 01:38:38;;;;;;;22.92;17.48;;;;;;;13.13;100.00;96028.94;1035048;28;20499;-65
2021/09/29 01:39:10;;;;;;;21.83;16.40;;;;;;;13.16;100.00;96028.41;1035440;28;20049;-66
2021/09/29 01:39:41;;;;;;;20.08;16.92;;;;;;;13.21;100.00;96038.13;1031257;28;20463;-66
2021/09/29 01:40:12;;;;;;;27.58;18.67;;;;;;;13.16;100.00;96023.16;1031255;28;20018;-65
2021/09/29 01:40:42;;;;;;;21.00;17.00;;;;;;;13.20;100.00;96033.94;1031822;28;20086;-66
2021/09/29 01:41:12;;;;;;;26.40;17.25;;;;;;;13.21;100.00;96036.31;1036764;28;20021;-65
2021/09/29 01:41:43;;;;;;;23.60;17.17;;;;;;;13.21;100.00;96032.84;1035554;28;20018;-66
2021/09/29 01:42:13;;;;;;;21.45;16.95;;;;;;;13.24;100.00;96034.16;1035484;28;20384;-66
2021/09/29 01:42:44;;;;;;;23.77;17.33;;;;;;;13.24;100.00;96029.72;1039328;28;20033;-66
2021/09/29 01:43:14;;;;;;;21.02;16.75;;;;;;;13.24;100.00;96031.53;1038608;28;20029;-65
2021/09/29 01:43:47;;;;;;;20.23;16.83;;;;;;;13.22;100.00;96037.09;1028666;28;20023;-64
2021/09/29 01:44:18;;;;;;;23.27;17.17;;;;;;;13.24;100.00;96037.63;1024030;28;20489;-64
2021/09/29 01:44:48;;;;;;;21.27;17.08;;;;;;;13.23;100.00;96036.03;1018573;29;20039;-66
2021/09/29 01:45:19;;;;;;;24.30;17.05;;;;;;;13.26;100.00;96035.50;1024622;28;20027;-65
2021/09/29 01:45:49;;;;;;;20.13;16.55;;;;;;;13.26;100.00;96032.88;1022816;28;20022;-65
2021/09/29 01:46:20;;;;;;;19.98;16.45;;;;;;;13.25;100.00;96041.84;1022623;29;20023;-66
2021/09/29 01:46:50;;;;;;;22.20;17.05;;;;;;;13.24;100.00;96034.97;1019645;29;20483;-65
2021/09/29 01:47:21;;;;;;;21.40;16.30;;;;;;;13.24;100.00;96034.97;1022973;29;20030;-66
2021/09/29 01:47:51;;;;;;;22.02;17.92;;;;;;;13.23;100.00;96038.66;1022631;28;20400;-66
2021/09/29 01:48:22;;;;;;;20.48;16.00;;;;;;;13.23;100.00;96038.66;1019057;29;20020;-65
2021/09/29 01:49:10;;;;;;;23.92;17.17;;;;;;;13.30;100.00;96039.19;1023573;28;20011;-66
2021/09/29 01:49:42;;;;;;;27.13;18.55;;;;;;;13.25;100.00;96031.31;1028994;28;20509;-66
2021/09/29 01:50:13;;;;;;;23.23;17.77;;;;;;;13.32;100.00;96034.44;1018731;29;20335;-66
2021/09/29 01:50:47;;;;;;;22.88;17.77;;;;;;;13.33;100.00;96038.63;1023049;29;20567;-65
2021/09/29 01:51:18;;;;;;;20.42;18.10;;;;;;;13.32;100.00;96034.44;1021955;28;20026;-63
2021/09/29 01:51:49;;;;;;;21.58;17.98;;;;;;;13.31;100.00;96030.22;1022712;29;20034;-66
2021/09/29 01:52:21;;;;;;;22.90;17.63;;;;;;;13.26;100.00;96022.34;1030589;28;20484;-65
2021/09/29 01:52:51;;;;;;;21.35;17.20;;;;;;;13.30;100.00;96028.63;1030658;28;20022;-65
2021/09/29 01:53:21;;;;;;;26.13;18.30;;;;;;;13.27;100.00;96034.44;1026807;28;20257;-66
2021/09/29 01:53:53;;;;;;;24.23;18.70;;;;;;;13.26;100.00;96021.56;1018636;29;20055;-66
2021/09/29 01:54:25;;;;;;;24.08;17.75;;;;;;;13.27;100.00;96029.16;1023027;29;20043;-66
2021/09/29 01:54:55;;;;;;;22.25;17.25;;;;;;;13.26;100.00;96032.88;1023648;28;20015;-65
2021/09/29 01:55:26;;;;;;;31.30;18.77;;;;;;;13.27;100.00;96023.91;1028480;28;20021;-66
2021/09/29 01:55:57;;;;;;;23.95;17.75;;;;;;;13.26;100.00;96011.00;1026822;28;20015;-64
2021/09/29 01:56:27;;;;;;;24.83;17.77;;;;;;;13.29;100.00;96032.34;1024784;28;20023;-65
2021/09/29 01:56:58;;;;;;;22.35;17.98;;;;;;;13.29;100.00;96021.78;1030289;28;20026;-65
2021/09/29 01:57:28;;;;;;;21.90;17.55;;;;;;;13.26;100.00;96021.56;1026728;28;20019;-65
2021/09/29 01:57:59;;;;;;;22.25;18.40;;;;;;;13.27;100.00;96012.56;1026805;28;20025;-65
2021/09/29 01:58:31;;;;;;;22.95;18.35;;;;;;;13.33;100.00;96025.44;1023013;29;20028;-65
2021/09/29 01:59:03;;;;;;;24.92;19.33;;;;;;;13.27;100.00;96008.09;1022627;28;20489;-65
2021/09/29 01:59:33;;;;;;;23.38;18.95;;;;;;;13.35;100.00;96020.72;1026929;28;20740;-65
2021/09/29 02:00:05;;;;;;;24.20;19.23;;;;;;;13.35;100.00;96015.44;1030486;28;20022;-65
2021/09/29 02:00:37;;;;;;;24.50;17.58;;;;;;;13.35;100.00;96017.28;1022820;29;20114;-65
2021/09/29 02:01:07;;;;;;;22.13;18.38;;;;;;;13.35;100.00;96015.44;1023151;28;20106;-67
2021/09/29 02:01:39;;;;;;;23.48;18.10;;;;;;;13.34;100.00;96019.13;1022172;28;20023;-66
2021/09/29 02:02:11;;;;;;;22.50;18.10;;;;;;;13.39;100.00;96020.94;1020198;28;20526;-65
2021/09/29 02:02:45;;;;;;;21.20;17.95;;;;;;;13.32;100.00;96010.72;1022728;29;20259;-65
2021/09/29 02:03:20;;;;;;;23.40;18.17;;;;;;;13.35;100.00;96020.72;1030365;28;20472;-65
2021/09/29 02:03:51;;;;;;;23.38;17.83;;;;;;;13.33;100.00;96016.75;1030725;28;20049;-66
2021/09/29 02:04:21;;;;;;;22.13;17.27;;;;;;;13.30;100.00;96023.38;1030898;28;20736;-66
2021/09/29 02:04:52;;;;;;;23.58;18.50;;;;;;;13.31;100.00;96024.97;1031921;28;20026;-66
2021/09/29 02:05:28;;;;;;;21.83;18.80;;;;;;;13.32;100.00;96015.19;1030793;28;20081;-66
2021/09/29 02:05:59;;;;;;;21.70;18.33;;;;;;;13.32;100.00;96023.88;1023785;28;20517;-66
2021/09/29 02:06:29;;;;;;;22.10;19.17;;;;;;;13.31;100.00;96022.31;1023898;28;20456;-66
2021/09/29 02:07:00;;;;;;;24.25;18.52;;;;;;;13.30;100.00;96012.81;1026666;28;20023;-66
2021/09/29 02:07:30;;;;;;;21.00;18.40;;;;;;;13.33;100.00;96028.09;1026334;28;20049;-66
2021/09/29 02:08:03;;;;;;;23.65;18.40;;;;;;;13.29;100.00;96018.38;1018749;29;20028;-66
2021/09/29 02:08:36;;;;;;;22.90;19.23;;;;;;;13.31;100.00;96024.97;1022627;28;20075;-65
2021/09/29 02:09:06;;;;;;;26.52;19.35;;;;;;;13.30;100.00;96026.00;1024934;28;20027;-65
2021/09/29 02:09:37;;;;;;;22.65;20.08;;;;;;;13.30;100.00;96019.94;1028261;28;20262;-66
2021/09/29 02:10:08;;;;;;;23.25;19.67;;;;;;;13.29;100.00;96027.06;1030825;28;20026;-66
2021/09/29 02:10:38;;;;;;;23.95;18.48;;;;;;;13.28;100.00;96027.31;1026719;28;20031;-66
2021/09/29 02:11:09;;;;;;;21.35;18.85;;;;;;;13.28;100.00;96022.88;1022940;29;20401;-65
2021/09/29 02:11:39;;;;;;;24.98;19.90;;;;;;;13.30;100.00;96027.84;1018838;28;20421;-66
2021/09/29 02:12:10;;;;;;;26.05;20.38;;;;;;;13.27;100.00;96025.75;1023139;28;20078;-66
2021/09/29 02:12:40;;;;;;;23.98;20.55;;;;;;;13.28;100.00;96029.97;1026893;28;20018;-64
2021/09/29 02:13:11;;;;;;;24.77;19.80;;;;;;;13.20;100.00;96018.91;1033435;28;20030;-66
2021/09/29 02:13:41;;;;;;;27.15;18.40;;;;;;;13.20;100.00;96028.66;1034453;28;20030;-64
2021/09/29 02:14:13;;;;;;;27.65;19.73;;;;;;;13.19;100.00;96024.44;1030626;28;20022;-66
2021/09/29 02:14:44;;;;;;;24.92;19.08;;;;;;;13.21;100.00;96025.78;1022520;28;20543;-66
2021/09/29 02:15:14;;;;;;;21.70;19.30;;;;;;;13.20;100.00;96021.53;1025366;28;20034;-65
2021/09/29 02:15:45;;;;;;;23.90;20.10;;;;;;;13.21;100.00;96024.94;1030734;28;20496;-66
2021/09/29 02:16:15;;;;;;;24.88;19.95;;;;;;;13.20;100.00;96023.38;1018800;28;20027;-65
2021/09/29 02:16:47;;;;;;;24.67;20.20;;;;;;;13.21;100.00;96019.69;1023594;28;20409;-66
2021/09/29 02:17:18;;;;;;;24.65;19.35;;;;;;;13.18;100.00;96020.25;1030721;28;20027;-65
2021/09/29 02:17:49;;;;;;;26.63;20.80;;;;;;;13.17;100.00;96019.44;1022824;28;20031;-65
2021/09/29 02:18:19;;;;;;;25.83;21.20;;;;;;;13.19;100.00;96022.59;1022563;28;20019;-65
2021/09/29 02:18:50;;;;;;;26.30;21.13;;;;;;;13.13;100.00;96012.38;1022597;29;20082;-66
2021/09/29 02:19:21;;;;;;;23.70;20.25;;;;;;;13.17;100.00;96026.56;1024608;28;20058;-65
2021/09/29 02:19:52;;;;;;;27.63;20.50;;;;;;;13.15;100.00;96023.44;1022745;29;20027;-66
2021/09/29 02:20:23;;;;;;;24.33;20.88;;;;;;;13.14;100.00;96019.19;1022519;28;20023;-66
2021/09/29 02:20:53;;;;;;;27.42;20.77;;;;;;;13.13;100.00;96017.63;1026666;28;20145;-66
2021/09/29 02:21:24;;;;;;;27.83;21.92;;;;;;;13.09;100.00;96016.59;1025864;28;20038;-66
2021/09/29 02:21:54;;;;;;;26.10;21.05;;;;;;;13.12;100.00;96021.34;1023792;28;20106;-65
2021/09/29 02:22:25;;;;;;;25.80;20.98;;;;;;;13.08;100.00;96015.81;1022807;28;20019;-66
2021/09/29 02:22:55;;;;;;;23.38;20.88;;;;;;;13.12;100.00;96023.97;1022642;28;20122;-66
2021/09/29 02:23:26;;;;;;;26.48;21.13;;;;;;;13.08;100.00;96025.56;1026760;28;20054;-66
2021/09/29 02:23:56;;;;;;;30.23;22.05;;;;;;;13.04;100.00;96017.41;1026755;28;20122;-66
2021/09/29 02:24:27;;;;;;;25.63;21.08;;;;;;;13.09;100.00;96021.88;1020595;29;20067;-66
2021/09/29 02:24:58;;;;;;;25.33;21.23;;;;;;;13.09;100.00;96022.66;1026852;28;20115;-66
2021/09/29 02:25:28;;;;;;;37.88;23.63;;;;;;;13.08;100.00;96013.19;1018679;28;20030;-66
2021/09/29 02:25:59;;;;;;;27.08;21.08;;;;;;;13.08;100.00;96021.09;1026634;28;20512;-65